createdAt,value
2018-08-25T00:01:39.094Z,17.00
2018-08-25T00:06:49.088Z,17.00
2018-08-25T00:11:59.559Z,16.70
2018-08-25T00:17:09.524Z,16.80
2018-08-25T00:22:19.569Z,17.00
2018-08-25T00:27:29.632Z,16.70
2018-08-25T00:32:39.882Z,16.70
2018-08-25T00:37:49.985Z,17.00
2018-08-25T00:43:00.342Z,16.20
2018-08-25T00:48:10.428Z,16.40
2018-08-25T00:53:20.870Z,16.50
2018-08-25T00:58:30.975Z,16.30
2018-08-25T01:03:40.973Z,16.50
2018-08-25T01:08:50.945Z,16.20
2018-08-25T01:14:01.046Z,17.00
2018-08-25T01:19:11.180Z,16.20
2018-08-25T01:24:21.273Z,16.60
2018-08-25T01:29:31.255Z,16.40
2018-08-25T01:34:41.395Z,16.40
2018-08-25T01:39:51.456Z,15.90
2018-08-25T01:45:01.957Z,16.30
2018-08-25T01:50:12.064Z,16.70
2018-08-25T01:55:22.267Z,16.60
2018-08-25T02:00:32.248Z,16.30
2018-08-25T02:05:42.474Z,16.30
2018-08-25T02:10:52.563Z,16.90
2018-08-25T02:16:02.905Z,16.20
2018-08-25T02:21:13.024Z,16.30
2018-08-25T02:26:23.176Z,15.80
2018-08-25T02:31:33.165Z,16.30
2018-08-25T02:36:43.254Z,15.60
2018-08-25T02:41:53.346Z,16.10
2018-08-25T02:47:03.515Z,15.30
2018-08-25T02:52:13.875Z,15.20
2018-08-25T02:57:23.955Z,14.60
2018-08-25T03:02:33.811Z,14.50
2018-08-25T03:07:43.766Z,14.80
2018-08-25T03:12:53.883Z,13.90
2018-08-25T03:18:04.089Z,14.40
2018-08-25T03:23:14.045Z,15.60
2018-08-25T03:28:24.171Z,15.00
2018-08-25T03:33:34.259Z,14.30
2018-08-25T03:38:44.454Z,14.50
2018-08-25T03:43:54.539Z,14.30
2018-08-25T03:49:04.577Z,13.60
2018-08-25T03:54:14.760Z,15.50
2018-08-25T03:59:24.843Z,15.70
2018-08-25T04:04:34.904Z,14.10
2018-08-25T04:09:45.019Z,14.70
2018-08-25T04:14:55.300Z,14.10
2018-08-25T04:20:05.842Z,14.30
2018-08-25T04:25:16.275Z,14.70
2018-08-25T04:30:26.906Z,13.80
2018-08-25T04:35:36.895Z,14.20
2018-08-25T04:40:46.824Z,14.10
2018-08-25T04:45:56.747Z,13.60
2018-08-25T04:51:06.778Z,13.90
2018-08-25T04:56:16.976Z,14.80
2018-08-25T05:01:27.087Z,14.40
2018-08-25T05:06:37.200Z,15.20
2018-08-25T05:11:47.356Z,15.40
2018-08-25T05:16:57.485Z,15.60
2018-08-25T05:22:07.605Z,13.90
2018-08-25T05:27:17.750Z,14.50
2018-08-25T05:32:27.828Z,13.90
2018-08-25T05:37:37.959Z,14.40
2018-08-25T05:42:48.003Z,15.20
2018-08-25T05:47:58.204Z,14.90
2018-08-25T05:53:08.179Z,14.80
2018-08-25T05:58:18.337Z,15.10
2018-08-25T06:03:28.483Z,15.70
2018-08-25T06:08:38.771Z,16.10
2018-08-25T06:13:48.892Z,14.70
2018-08-25T06:18:58.928Z,15.70
2018-08-25T06:24:09.034Z,14.10
2018-08-25T06:29:19.336Z,14.90
2018-08-25T06:34:29.452Z,15.50
2018-08-25T06:39:39.575Z,15.60
2018-08-25T06:44:50.013Z,15.70
2018-08-25T06:50:00.420Z,16.10
2018-08-25T06:55:10.387Z,16.70
2018-08-25T07:00:20.388Z,15.40
2018-08-25T07:05:30.445Z,15.70
2018-08-25T07:10:40.542Z,16.20
2018-08-25T07:15:50.679Z,16.60
2018-08-25T07:21:00.648Z,16.10
2018-08-25T07:26:10.745Z,16.30
2018-08-25T07:31:20.747Z,15.80
2018-08-25T07:36:30.812Z,15.60
2018-08-25T07:41:41.039Z,16.80
2018-08-25T07:46:51.134Z,17.40
2018-08-25T07:52:01.357Z,16.40
2018-08-25T07:57:11.576Z,17.70
2018-08-25T08:02:21.702Z,18.50
2018-08-25T08:07:31.895Z,19.00
2018-08-25T08:12:42.019Z,18.90
2018-08-25T08:17:52.197Z,18.90
2018-08-25T08:23:02.175Z,18.40
2018-08-25T08:28:12.343Z,18.00
2018-08-25T08:33:22.526Z,17.60
2018-08-25T08:38:35.188Z,17.50
2018-08-25T08:43:45.321Z,18.40
2018-08-25T08:48:55.283Z,18.30
2018-08-25T08:54:05.608Z,18.50
2018-08-25T08:59:15.794Z,18.70
2018-08-25T09:04:25.900Z,19.20
2018-08-25T09:09:35.976Z,19.80
2018-08-25T09:14:45.882Z,19.60
2018-08-25T09:19:56.114Z,19.60
2018-08-25T09:25:06.436Z,19.70
2018-08-25T09:30:16.514Z,20.00
2018-08-25T09:35:26.518Z,20.10
2018-08-25T09:40:36.877Z,20.10
2018-08-25T09:45:47.123Z,19.80
2018-08-25T09:50:57.331Z,20.30
2018-08-25T09:56:07.477Z,21.20
2018-08-25T10:01:23.025Z,21.10
2018-08-25T10:06:33.162Z,20.50
2018-08-25T10:11:43.197Z,20.30
2018-08-25T10:16:53.425Z,20.30
2018-08-25T10:22:03.340Z,20.70
2018-08-25T10:27:13.484Z,21.00
2018-08-25T10:32:23.551Z,20.70
2018-08-25T10:37:33.972Z,20.70
2018-08-25T10:42:44.199Z,20.30
2018-08-25T10:47:54.310Z,20.90
2018-08-25T10:53:04.445Z,21.20
2018-08-25T10:58:14.507Z,21.10
2018-08-25T11:03:24.511Z,20.80
2018-08-25T11:08:34.672Z,20.20
2018-08-25T11:13:44.720Z,20.30
2018-08-25T11:18:55.419Z,20.30
2018-08-25T11:24:05.414Z,20.70
2018-08-25T11:29:15.646Z,21.10
2018-08-25T11:34:25.724Z,21.30
2018-08-25T11:39:35.865Z,21.10
2018-08-25T11:44:45.995Z,21.00
2018-08-25T11:49:56.130Z,20.80
2018-08-25T11:55:06.344Z,21.30
2018-08-25T12:00:16.431Z,20.70
2018-08-25T12:05:26.507Z,21.20
2018-08-25T12:10:36.552Z,21.90
2018-08-25T12:15:46.627Z,23.10
2018-08-25T12:20:56.659Z,23.20
2018-08-25T12:26:06.555Z,23.80
2018-08-25T12:31:16.531Z,22.20
2018-08-25T12:36:26.472Z,22.60
2018-08-25T12:41:36.535Z,21.90
2018-08-25T12:46:46.919Z,21.70
2018-08-25T12:51:57.080Z,22.20
2018-08-25T12:57:07.196Z,23.00
2018-08-25T13:02:17.828Z,23.00
2018-08-25T13:07:27.811Z,23.60
2018-08-25T13:12:37.910Z,24.10
2018-08-25T13:17:48.084Z,23.90
2018-08-25T13:22:58.371Z,24.40
2018-08-25T13:28:08.657Z,25.30
2018-08-25T13:33:19.238Z,24.10
2018-08-25T13:38:29.336Z,23.80
2018-08-25T13:43:39.417Z,23.50
2018-08-25T13:48:49.774Z,23.00
2018-08-25T13:53:59.961Z,22.60
2018-08-25T13:59:10.179Z,22.00
2018-08-25T14:04:20.336Z,21.30
2018-08-25T14:09:30.479Z,21.30
2018-08-25T14:14:40.368Z,21.40
2018-08-25T14:19:50.366Z,21.90
2018-08-25T14:25:00.566Z,22.40
2018-08-25T14:30:10.680Z,23.00
2018-08-25T14:35:20.655Z,23.30
2018-08-25T14:40:30.748Z,23.80
2018-08-25T14:45:40.884Z,23.50
2018-08-25T14:50:51.104Z,22.80
2018-08-25T14:56:01.316Z,22.10
2018-08-25T15:01:11.399Z,22.60
2018-08-25T15:06:21.499Z,23.30
2018-08-25T15:11:31.678Z,23.50
2018-08-25T15:16:41.801Z,23.70
2018-08-25T15:21:51.930Z,23.70
2018-08-25T15:27:01.944Z,23.40
2018-08-25T15:32:12.079Z,23.10
2018-08-25T15:37:22.191Z,23.30
2018-08-25T15:42:32.197Z,22.60
2018-08-25T15:47:42.492Z,21.90
2018-08-25T15:52:52.784Z,22.20
2018-08-25T15:58:02.985Z,21.90
2018-08-25T16:03:12.969Z,22.10
2018-08-25T16:08:23.037Z,21.90
2018-08-25T16:13:33.084Z,21.90
2018-08-25T16:18:43.272Z,21.80
2018-08-25T16:25:17.823Z,21.60
2018-08-25T16:30:27.940Z,21.60
2018-08-25T16:35:38.031Z,21.30
2018-08-25T16:40:48.503Z,21.30
2018-08-25T16:45:58.627Z,20.90
2018-08-25T16:51:08.809Z,20.90
2018-08-25T16:56:19.072Z,21.40
2018-08-25T17:01:29.169Z,21.20
2018-08-25T17:06:39.254Z,20.60
2018-08-25T17:11:50.099Z,20.40
2018-08-25T17:17:00.331Z,19.90
2018-08-25T17:22:10.507Z,19.90
2018-08-25T17:27:20.648Z,19.80
2018-08-25T17:32:30.676Z,19.70
2018-08-25T17:37:40.844Z,20.10
2018-08-25T17:42:51.007Z,20.30
2018-08-25T17:48:01.053Z,20.20
2018-08-25T17:53:10.996Z,20.20
2018-08-25T17:58:21.167Z,19.90
2018-08-25T18:03:31.256Z,19.40
2018-08-25T18:08:41.295Z,19.40
2018-08-25T18:13:51.279Z,19.30
2018-08-25T18:19:01.395Z,19.30
2018-08-25T18:24:11.531Z,19.20
2018-08-25T18:29:21.554Z,19.20
2018-08-25T18:34:31.664Z,18.80
2018-08-25T18:39:41.795Z,18.60
2018-08-25T18:44:52.033Z,18.90
2018-08-25T18:50:02.862Z,18.90
2018-08-25T18:55:13.248Z,18.90
2018-08-25T19:00:23.383Z,18.90
2018-08-25T19:05:33.539Z,18.90
2018-08-25T19:10:43.559Z,18.80
2018-08-25T19:15:53.559Z,18.60
2018-08-25T19:21:03.751Z,18.50
2018-08-25T19:26:13.936Z,18.60
2018-08-25T19:31:24.006Z,18.70
2018-08-25T19:36:34.104Z,18.70
2018-08-25T19:41:44.070Z,18.60
2018-08-25T19:46:54.323Z,18.60
2018-08-25T19:52:04.632Z,18.50
2018-08-25T19:57:14.636Z,18.40
2018-08-25T20:02:24.727Z,18.30
2018-08-25T20:07:34.868Z,18.30
2018-08-25T20:12:44.988Z,18.20
2018-08-25T20:17:55.225Z,18.10
2018-08-25T20:23:05.428Z,18.50
2018-08-25T20:28:15.543Z,18.60
2018-08-25T20:33:25.636Z,18.10
2018-08-25T20:38:35.699Z,17.70
2018-08-25T20:43:45.660Z,17.80
2018-08-25T20:48:55.742Z,17.70
2018-08-25T20:54:05.851Z,17.50
2018-08-25T20:59:16.461Z,17.20
2018-08-25T21:04:26.546Z,17.40
2018-08-25T21:09:37.180Z,17.70
2018-08-25T21:14:47.770Z,17.60
2018-08-25T21:19:58.535Z,17.60
2018-08-25T21:25:10.226Z,17.80
2018-08-25T21:30:20.523Z,17.50
2018-08-25T21:35:30.827Z,17.30
2018-08-25T21:40:40.879Z,17.40
2018-08-25T21:45:51.031Z,17.40
2018-08-25T21:51:01.024Z,16.80
2018-08-25T21:56:11.094Z,16.50
2018-08-25T22:01:21.100Z,17.10
2018-08-25T22:06:31.170Z,17.30
2018-08-25T22:11:41.274Z,16.80
2018-08-25T22:16:51.407Z,17.00
2018-08-25T22:22:01.532Z,16.40
2018-08-25T22:27:11.562Z,16.30
2018-08-25T22:32:21.516Z,16.90
2018-08-25T22:37:31.659Z,17.20
2018-08-25T22:42:41.695Z,17.40
2018-08-25T22:47:52.856Z,17.30
2018-08-25T22:53:02.770Z,17.20
2018-08-25T22:58:12.776Z,17.00
2018-08-25T23:03:22.840Z,17.10
2018-08-25T23:08:33.087Z,16.50
2018-08-25T23:13:43.186Z,15.40
2018-08-25T23:18:53.335Z,16.00
2018-08-25T23:24:03.329Z,16.10
2018-08-25T23:29:13.443Z,15.80
2018-08-25T23:34:23.519Z,15.90
2018-08-25T23:39:33.629Z,14.00
2018-08-25T23:44:43.659Z,12.70
2018-08-25T23:49:53.742Z,13.20
2018-08-25T23:55:05.536Z,12.90
